< Cyclone 198606 1986 Season Cyclone 198608 >
Cyclone 198607 (RHONDA)
General InformationTrack Information on Google MapsDetailed Wind InformationList of All Images || ResourceGoogle EarthGE AnimationAtom FeedGeoJSON
Detalied Best Track (Time Zone = UTC)
Year Month Day Hour Lat. Long. Pressure (hPa) Wind (kt) Class Image Chart
1986 2 17 00 -15.6 116.3 1002 20 2 Image --
1986 2 17 06 -15.6 115.3 1002 20 2 Image --
1986 2 17 12 -16.0 115.3 1001 20 2 Image --
1986 2 17 18 -16.4 115.7 1001 20 2 Image --
1986 2 18 00 -16.7 115.2 1001 20 2 Image --
1986 2 18 06 -17.5 114.9 1000 25 2 Image --
1986 2 18 12 -17.9 114.6 994 35 3 Image --
1986 2 18 18 -18.3 114.4 992 45 3 Image --
1986 2 19 00 -18.9 114.3 985 55 4 Image --
1986 2 19 03 -19.2 114.1 984 55 4 Image --
1986 2 19 06 -19.5 113.8 984 55 4 Image --
1986 2 19 09 -19.9 113.6 982 55 4 Image --
1986 2 19 12 -20.3 113.4 978 60 4 Image --
1986 2 19 16 -20.8 113.2 976 60 4 Image --
1986 2 19 18 -21.5 113.2 974 65 5 Image --
1986 2 19 21 -22.2 113.1 970 65 5 Image --
1986 2 20 00 -23.2 112.5 968 65 5 Image --
1986 2 20 03 -23.7 112.3 968 65 5 Image --
1986 2 20 06 -24.3 112.2 970 60 4 Image --
1986 2 20 09 -24.9 112.1 970 55 4 Image --
1986 2 20 12 -25.5 112.1 975 50 4 Image --
1986 2 20 16 -26.2 112.3 980 40 3 Image --
1986 2 20 18 -26.5 112.6 985 30 2 Image --
1986 2 20 21 -27.0 112.8 990 25 2 Image --
1986 2 21 00 -27.4 112.9 995 25 2 Image --
< Cyclone 198606 1986 Season Cyclone 198608 >

Help